createdAt,value
2022-12-05T00:01:49.818Z,279.07
2022-12-05T00:04:16.631Z,319.77
2022-12-05T00:06:44.335Z,304.85
2022-12-05T00:09:12.614Z,318.73
2022-12-05T00:11:42.648Z,333.63
2022-12-05T00:14:10.246Z,372.55
2022-12-05T00:16:39.395Z,351.90
2022-12-05T00:19:07.976Z,364.08
2022-12-05T00:21:36.448Z,348.13
2022-12-05T00:24:05.781Z,332.92
2022-12-05T00:26:32.998Z,324.63
2022-12-05T00:29:00.205Z,326.85
2022-12-05T00:31:28.124Z,323.08
2022-12-05T00:33:55.720Z,298.02
2022-12-05T00:36:28.214Z,301.38
2022-12-05T00:38:55.812Z,334.13
2022-12-05T00:41:26.090Z,346.33
2022-12-05T00:43:53.390Z,348.33
2022-12-05T00:46:23.360Z,362.30
2022-12-05T00:48:52.071Z,324.45
2022-12-05T00:51:26.722Z,310.90
2022-12-05T00:53:58.034Z,317.55
2022-12-05T00:56:26.539Z,318.42
2022-12-05T00:58:56.502Z,326.80
2022-12-05T01:01:27.036Z,327.73
2022-12-05T01:03:55.902Z,331.98
2022-12-05T01:06:24.533Z,351.85
2022-12-05T01:08:55.598Z,224.75
2022-12-05T01:11:23.860Z,381.52
2022-12-05T01:13:51.002Z,375.00
2022-12-05T01:16:31.904Z,346.67
2022-12-05T01:19:00.657Z,319.17
2022-12-05T01:21:27.710Z,348.70
2022-12-05T01:23:54.710Z,373.17
2022-12-05T01:26:22.734Z,379.55
2022-12-05T01:28:50.969Z,390.23
2022-12-05T01:31:29.758Z,377.38
2022-12-05T01:33:58.425Z,375.25
2022-12-05T01:36:27.571Z,371.33
2022-12-05T01:38:55.021Z,357.23
2022-12-05T01:41:28.658Z,367.25
2022-12-05T01:44:00.119Z,367.65
2022-12-05T01:46:38.150Z,343.33
2022-12-05T01:49:15.250Z,380.85
2022-12-05T01:51:51.817Z,377.50
2022-12-05T01:54:20.678Z,387.73
2022-12-05T01:56:52.116Z,401.23
2022-12-05T01:59:21.083Z,399.85
2022-12-05T02:01:48.123Z,392.73
2022-12-05T02:04:15.066Z,410.63
2022-12-05T02:06:42.469Z,416.23
2022-12-05T02:09:09.386Z,420.92
2022-12-05T02:12:02.235Z,419.00
2022-12-05T02:14:44.887Z,447.13
2022-12-05T02:17:36.685Z,423.10
2022-12-05T02:20:26.879Z,401.83
2022-12-05T02:23:16.454Z,422.42
2022-12-05T02:26:04.817Z,384.37
2022-12-05T02:28:51.150Z,451.00
2022-12-05T02:31:40.748Z,465.57
2022-12-05T02:34:24.124Z,429.95
2022-12-05T02:37:03.050Z,487.07
2022-12-05T02:40:04.394Z,474.63
2022-12-05T02:42:49.222Z,475.13
2022-12-05T02:45:18.958Z,462.33
2022-12-05T02:47:49.092Z,476.13
2022-12-05T02:50:22.081Z,474.20
2022-12-05T02:52:50.835Z,438.83
2022-12-05T02:55:19.448Z,442.80
2022-12-05T02:57:52.894Z,448.27
2022-12-05T03:00:19.728Z,436.25
2022-12-05T03:02:48.558Z,471.25
2022-12-05T03:05:22.621Z,433.70
2022-12-05T03:07:52.220Z,448.87
2022-12-05T03:10:22.213Z,419.23
2022-12-05T03:12:54.534Z,311.67
2022-12-05T03:15:26.507Z,354.02
2022-12-05T03:17:59.821Z,359.23
2022-12-05T03:20:34.512Z,359.92
2022-12-05T03:23:12.614Z,366.63
2022-12-05T03:26:11.955Z,382.17
2022-12-05T03:29:20.266Z,367.50
2022-12-05T03:32:10.845Z,382.93
2022-12-05T03:35:07.707Z,388.40
2022-12-05T03:37:52.768Z,407.90
2022-12-05T03:40:19.560Z,395.23
2022-12-05T03:43:00.314Z,391.15
2022-12-05T03:45:39.767Z,421.90
2022-12-05T03:48:31.764Z,453.58
2022-12-05T03:51:00.034Z,433.77
2022-12-05T03:53:44.951Z,444.70
2022-12-05T03:56:19.481Z,500.38
2022-12-05T03:59:02.253Z,474.17
2022-12-05T04:01:31.433Z,477.60
2022-12-05T04:04:04.350Z,523.35
2022-12-05T04:06:35.285Z,541.33
2022-12-05T04:09:25.991Z,605.00
2022-12-05T04:11:57.616Z,817.55
2022-12-05T04:14:34.086Z,827.67
2022-12-05T04:17:09.817Z,855.88
2022-12-05T04:20:01.432Z,866.28
2022-12-05T04:22:28.816Z,817.83
2022-12-05T04:25:17.423Z,859.17
2022-12-05T04:27:54.585Z,885.15
2022-12-05T04:30:25.779Z,905.08
2022-12-05T04:33:09.385Z,894.90
2022-12-05T04:35:46.309Z,907.30
2022-12-05T04:38:40.040Z,888.33
2022-12-05T04:41:12.877Z,875.23
2022-12-05T04:43:41.930Z,877.92
2022-12-05T04:46:11.884Z,940.53
2022-12-05T04:48:41.691Z,938.90
2022-12-05T04:51:13.144Z,935.30
2022-12-05T04:53:42.485Z,959.28
2022-12-05T04:56:11.632Z,960.75
2022-12-05T04:58:38.513Z,964.20
2022-12-05T05:01:37.178Z,956.78
2022-12-05T05:04:25.766Z,962.05
2022-12-05T05:06:52.697Z,956.55
2022-12-05T05:09:19.457Z,956.07
2022-12-05T05:11:46.315Z,940.90
2022-12-05T05:14:15.104Z,953.27
2022-12-05T05:16:42.915Z,948.83
2022-12-05T05:19:11.858Z,946.50
2022-12-05T05:21:41.307Z,951.22
2022-12-05T05:24:09.811Z,950.05
2022-12-05T05:26:39.546Z,953.90
2022-12-05T05:29:06.547Z,953.67
2022-12-05T05:31:33.666Z,947.43
2022-12-05T05:34:04.540Z,942.38
2022-12-05T05:36:36.086Z,949.95
2022-12-05T05:39:03.731Z,947.70
2022-12-05T05:41:33.652Z,949.60
2022-12-05T05:44:01.067Z,953.90
2022-12-05T05:46:30.605Z,947.05
2022-12-05T05:48:58.245Z,946.88
2022-12-05T05:51:27.928Z,947.30
2022-12-05T05:53:54.918Z,945.75
2022-12-05T05:56:22.376Z,945.10
2022-12-05T05:58:56.033Z,947.90
2022-12-05T06:01:23.190Z,949.50
2022-12-05T06:03:53.405Z,947.92
2022-12-05T06:06:21.674Z,957.38
2022-12-05T06:08:48.701Z,944.45
2022-12-05T06:11:25.853Z,947.58
2022-12-05T06:13:57.592Z,947.63
2022-12-05T06:16:25.108Z,946.85
2022-12-05T06:18:52.642Z,949.17
2022-12-05T06:21:20.208Z,942.17
2022-12-05T06:23:47.819Z,944.27
2022-12-05T06:26:17.578Z,943.88
2022-12-05T06:28:45.348Z,946.63
2022-12-05T06:31:14.747Z,947.33
2022-12-05T06:33:41.696Z,945.97
2022-12-05T06:36:14.775Z,947.78
2022-12-05T06:38:43.004Z,946.03
2022-12-05T06:41:15.965Z,952.80
2022-12-05T06:43:43.153Z,948.85
2022-12-05T06:46:12.352Z,956.20
2022-12-05T06:48:39.593Z,946.03
2022-12-05T06:51:09.423Z,947.33
2022-12-05T06:53:36.173Z,951.13
2022-12-05T06:56:07.427Z,950.22
2022-12-05T06:58:34.337Z,948.55
2022-12-05T07:01:21.013Z,949.03
2022-12-05T07:03:52.066Z,949.45
2022-12-05T07:06:18.837Z,893.25
2022-12-05T07:08:45.549Z,939.08
2022-12-05T07:11:12.262Z,933.37
2022-12-05T07:13:39.238Z,937.33
2022-12-05T07:16:09.874Z,931.93
2022-12-05T07:18:37.272Z,941.17
2022-12-05T07:21:12.094Z,939.95
2022-12-05T07:23:42.872Z,944.83
2022-12-05T07:26:12.882Z,937.75
2022-12-05T07:28:39.752Z,937.55
2022-12-05T07:31:09.400Z,943.95
2022-12-05T07:33:38.428Z,943.87
2022-12-05T07:36:23.780Z,948.83
2022-12-05T07:38:56.575Z,945.15
2022-12-05T07:41:29.022Z,944.65
2022-12-05T07:43:57.760Z,947.00
2022-12-05T07:46:25.889Z,945.53
2022-12-05T07:48:53.159Z,944.35
2022-12-05T07:51:20.884Z,944.38
2022-12-05T07:53:48.601Z,945.28
2022-12-05T07:56:17.482Z,947.92
2022-12-05T07:58:46.153Z,949.83
2022-12-05T08:01:16.181Z,957.45
2022-12-05T08:03:43.632Z,954.53
2022-12-05T08:06:13.310Z,951.13
2022-12-05T08:08:40.526Z,957.63
2022-12-05T08:11:10.265Z,952.03
2022-12-05T08:13:37.714Z,952.28
2022-12-05T08:16:06.850Z,956.65
2022-12-05T08:18:34.037Z,939.70
2022-12-05T08:21:05.169Z,955.30
2022-12-05T08:23:32.907Z,962.35
2022-12-05T08:26:04.807Z,961.13
2022-12-05T08:28:32.824Z,958.60
2022-12-05T08:31:12.207Z,955.47
2022-12-05T08:33:39.200Z,957.13
2022-12-05T08:36:09.415Z,961.75
2022-12-05T08:38:36.962Z,959.10
2022-12-05T08:41:06.137Z,959.27
2022-12-05T08:43:33.574Z,968.65
2022-12-05T08:46:00.859Z,929.50
2022-12-05T08:48:29.931Z,931.27
2022-12-05T08:50:57.654Z,928.58
2022-12-05T08:53:25.093Z,933.05
2022-12-05T08:55:51.902Z,939.78
2022-12-05T08:58:18.587Z,938.20
2022-12-05T09:00:46.528Z,871.42
2022-12-05T09:03:13.343Z,945.35
2022-12-05T09:05:40.310Z,947.83
2022-12-05T09:08:07.181Z,936.70
2022-12-05T09:10:34.005Z,937.42
2022-12-05T09:13:00.967Z,936.30
2022-12-05T09:15:29.538Z,941.25
2022-12-05T09:17:56.323Z,950.33
2022-12-05T09:20:23.038Z,940.15
2022-12-05T09:22:49.825Z,945.35
2022-12-05T09:25:16.593Z,913.90
2022-12-05T09:27:43.390Z,893.40
2022-12-05T09:30:11.547Z,889.63
2022-12-05T09:32:38.286Z,883.05
2022-12-05T09:35:05.358Z,878.72
2022-12-05T09:37:40.317Z,894.60
2022-12-05T09:40:18.693Z,893.90
2022-12-05T09:42:49.362Z,900.30
2022-12-05T09:45:43.186Z,909.45
2022-12-05T09:48:18.906Z,901.03
2022-12-05T09:50:46.010Z,932.63
2022-12-05T09:53:32.634Z,958.28
2022-12-05T09:56:05.471Z,965.20
2022-12-05T09:58:48.334Z,972.83
2022-12-05T10:01:24.297Z,974.33
2022-12-05T10:04:11.827Z,964.35
2022-12-05T10:07:07.194Z,968.00
2022-12-05T10:09:50.042Z,970.15
2022-12-05T10:12:24.863Z,966.50
2022-12-05T10:15:18.045Z,964.50
2022-12-05T10:18:01.322Z,953.57
2022-12-05T10:20:42.105Z,960.80
2022-12-05T10:23:49.029Z,968.45
2022-12-05T10:26:11.322Z,966.83
2022-12-05T10:29:17.761Z,970.27
2022-12-05T10:31:47.648Z,970.90
2022-12-05T10:34:39.237Z,975.22
2022-12-05T10:37:17.760Z,969.90
2022-12-05T10:39:45.539Z,971.70
2022-12-05T10:42:33.716Z,970.40
2022-12-05T10:45:05.554Z,973.03
2022-12-05T10:47:33.127Z,975.03
2022-12-05T10:50:08.123Z,967.95
2022-12-05T10:52:36.035Z,970.43
2022-12-05T10:55:06.304Z,975.45
2022-12-05T10:57:32.999Z,973.20
2022-12-05T11:00:15.164Z,968.83
2022-12-05T11:02:43.791Z,973.97
2022-12-05T11:05:11.655Z,980.75
2022-12-05T11:07:48.512Z,955.13
2022-12-05T11:10:26.534Z,962.55
2022-12-05T11:12:57.224Z,960.03
2022-12-05T11:15:27.778Z,958.50
2022-12-05T11:17:56.904Z,957.22
2022-12-05T11:20:23.613Z,951.78
2022-12-05T11:22:56.328Z,964.30
2022-12-05T11:25:34.140Z,960.78
2022-12-05T11:28:20.835Z,957.70
2022-12-05T11:31:21.139Z,957.33
2022-12-05T11:34:02.323Z,951.75
2022-12-05T11:36:46.328Z,964.17
2022-12-05T11:39:14.181Z,962.00
2022-12-05T11:42:16.361Z,960.35
2022-12-05T11:45:16.965Z,945.13
2022-12-05T11:48:08.134Z,944.33
2022-12-05T11:50:49.162Z,949.88
2022-12-05T11:53:24.687Z,956.95
2022-12-05T11:56:20.733Z,951.80
2022-12-05T11:58:56.683Z,961.00
2022-12-05T12:01:45.074Z,956.97
2022-12-05T12:04:57.054Z,956.17
2022-12-05T12:07:48.347Z,965.00
2022-12-05T12:10:35.516Z,955.07
2022-12-05T12:13:19.441Z,962.08
2022-12-05T12:16:07.961Z,960.42
2022-12-05T12:19:02.910Z,965.33
2022-12-05T12:22:07.241Z,962.23
2022-12-05T12:25:16.814Z,968.20
2022-12-05T12:28:23.138Z,965.25
2022-12-05T12:31:11.002Z,971.30
2022-12-05T12:34:04.934Z,971.63
2022-12-05T12:36:31.753Z,962.85
2022-12-05T12:39:05.595Z,967.30
2022-12-05T12:42:08.971Z,966.28
2022-12-05T12:44:50.726Z,960.58
2022-12-05T12:47:54.244Z,963.30
2022-12-05T12:50:23.440Z,967.73
2022-12-05T12:53:23.351Z,965.92
2022-12-05T12:56:28.052Z,955.15
2022-12-05T12:59:04.434Z,962.45
2022-12-05T13:01:42.281Z,962.92
2022-12-05T13:04:29.859Z,966.80
2022-12-05T13:07:05.167Z,966.65
2022-12-05T13:09:47.323Z,966.22
2022-12-05T13:12:24.196Z,966.58
2022-12-05T13:15:00.436Z,963.15
2022-12-05T13:17:30.353Z,969.47
2022-12-05T13:19:57.693Z,971.35
2022-12-05T13:22:27.251Z,957.65
2022-12-05T13:24:55.535Z,960.83
2022-12-05T13:27:27.862Z,961.50
2022-12-05T13:29:59.868Z,970.35
2022-12-05T13:32:36.189Z,886.22
2022-12-05T13:36:00.367Z,960.78
2022-12-05T13:38:56.457Z,955.10
2022-12-05T13:41:56.663Z,959.88
2022-12-05T13:44:45.445Z,964.55
2022-12-05T13:47:33.280Z,963.77
2022-12-05T13:50:07.240Z,965.60
2022-12-05T13:52:53.589Z,967.22
2022-12-05T13:55:37.725Z,976.47
2022-12-05T13:58:28.206Z,944.78
2022-12-05T14:01:27.222Z,958.63
2022-12-05T14:03:58.848Z,952.25
2022-12-05T14:06:38.509Z,948.92
2022-12-05T14:09:29.697Z,951.78
2022-12-05T14:12:12.106Z,946.67
2022-12-05T14:14:57.238Z,945.83
2022-12-05T14:17:45.017Z,944.22
2022-12-05T14:20:15.900Z,952.72
2022-12-05T14:23:30.319Z,936.00
2022-12-05T14:26:05.582Z,938.58
2022-12-05T14:28:37.995Z,942.72
2022-12-05T14:31:34.287Z,943.17
2022-12-05T14:34:24.879Z,968.20
2022-12-05T14:36:57.783Z,970.00
2022-12-05T14:39:37.136Z,970.92
2022-12-05T14:42:20.683Z,977.55
2022-12-05T14:44:51.153Z,977.70
2022-12-05T14:47:25.226Z,973.78
2022-12-05T14:49:53.692Z,974.80
2022-12-05T14:52:25.964Z,974.20
2022-12-05T14:54:55.141Z,967.92
2022-12-05T14:57:23.018Z,977.87
2022-12-05T14:59:58.610Z,972.60
2022-12-05T15:02:35.971Z,975.85
2022-12-05T15:05:20.615Z,987.90
2022-12-05T15:07:48.538Z,994.65
2022-12-05T15:10:25.037Z,983.70
2022-12-05T15:13:00.681Z,979.65
2022-12-05T15:15:40.301Z,979.42
2022-12-05T15:18:38.589Z,948.40
2022-12-05T15:21:23.692Z,985.75
2022-12-05T15:24:00.606Z,944.28
2022-12-05T15:26:46.872Z,946.40
2022-12-05T15:29:20.521Z,945.22
2022-12-05T15:31:51.774Z,943.28
2022-12-05T15:34:24.862Z,947.77
2022-12-05T15:36:57.872Z,941.72
2022-12-05T15:39:26.411Z,940.05
2022-12-05T15:41:54.606Z,942.05
2022-12-05T15:44:27.095Z,928.25
2022-12-05T15:46:57.335Z,922.08
2022-12-05T15:49:26.778Z,929.50
2022-12-05T15:52:21.510Z,941.05
2022-12-05T15:54:48.694Z,940.92
2022-12-05T15:57:22.850Z,947.35
2022-12-05T16:00:02.181Z,945.30
2022-12-05T16:02:58.746Z,938.90
2022-12-05T16:05:39.210Z,942.47
2022-12-05T16:08:06.994Z,936.83
2022-12-05T16:10:34.404Z,944.28
2022-12-05T16:13:13.446Z,945.75
2022-12-05T16:15:52.503Z,950.30
2022-12-05T16:18:29.418Z,947.63
2022-12-05T16:20:56.825Z,941.20
2022-12-05T16:23:25.819Z,945.42
2022-12-05T16:25:52.694Z,946.53
2022-12-05T16:28:21.457Z,942.00
2022-12-05T16:31:00.095Z,929.00
2022-12-05T16:33:29.227Z,939.60
2022-12-05T16:35:56.475Z,943.78
2022-12-05T16:38:32.046Z,937.92
2022-12-05T16:41:04.837Z,951.75
2022-12-05T16:43:34.736Z,957.85
2022-12-05T16:46:13.996Z,958.03
2022-12-05T16:48:44.411Z,953.30
2022-12-05T16:51:14.611Z,948.70
2022-12-05T16:53:48.113Z,910.90
2022-12-05T16:56:42.279Z,919.70
2022-12-05T16:59:20.498Z,932.55
2022-12-05T17:01:49.025Z,704.45
2022-12-05T17:04:16.085Z,651.53
2022-12-05T17:06:46.519Z,733.63
2022-12-05T17:09:14.349Z,739.78
2022-12-05T17:11:49.275Z,679.75
2022-12-05T17:14:18.360Z,694.58
2022-12-05T17:16:45.601Z,619.53
2022-12-05T17:19:12.620Z,681.22
2022-12-05T17:21:42.176Z,614.25
2022-12-05T17:24:17.694Z,677.78
2022-12-05T17:26:45.059Z,782.35
2022-12-05T17:29:12.107Z,929.63
2022-12-05T17:31:39.353Z,721.15
2022-12-05T17:34:15.575Z,709.78
2022-12-05T17:36:43.104Z,779.38
2022-12-05T17:39:09.891Z,601.63
2022-12-05T17:41:37.163Z,590.30
2022-12-05T17:44:07.270Z,575.95
2022-12-05T17:46:34.019Z,552.10
2022-12-05T17:49:01.052Z,591.17
2022-12-05T17:51:27.941Z,563.45
2022-12-05T17:53:54.831Z,567.53
2022-12-05T17:56:21.948Z,576.80
2022-12-05T17:58:49.514Z,569.28
2022-12-05T18:01:19.528Z,640.95
2022-12-05T18:03:47.389Z,670.38
2022-12-05T18:06:17.004Z,685.58
2022-12-05T18:08:45.110Z,675.42
2022-12-05T18:11:14.659Z,678.55
2022-12-05T18:13:41.654Z,551.28
2022-12-05T18:16:08.505Z,644.95
2022-12-05T18:18:35.714Z,550.47
2022-12-05T18:21:10.976Z,618.20
2022-12-05T18:23:39.313Z,637.45
2022-12-05T18:26:08.833Z,704.90
2022-12-05T18:28:37.258Z,759.33
2022-12-05T18:31:15.548Z,776.60
2022-12-05T18:33:45.908Z,765.17
2022-12-05T18:36:15.757Z,752.42
2022-12-05T18:38:43.409Z,806.85
2022-12-05T18:41:10.651Z,819.38
2022-12-05T18:43:37.501Z,860.33
2022-12-05T18:46:04.741Z,833.10
2022-12-05T18:48:43.653Z,877.70
2022-12-05T18:51:15.328Z,892.45
2022-12-05T18:53:42.901Z,938.15
2022-12-05T18:56:26.806Z,912.05
2022-12-05T18:59:02.655Z,759.75
2022-12-05T19:01:32.086Z,725.90
2022-12-05T19:04:00.731Z,822.10
2022-12-05T19:06:30.855Z,923.97
2022-12-05T19:09:00.550Z,938.20
2022-12-05T19:11:29.215Z,932.40
2022-12-05T19:14:04.305Z,910.22
2022-12-05T19:16:32.914Z,955.60
2022-12-05T19:19:02.136Z,946.88
2022-12-05T19:21:30.944Z,935.70
2022-12-05T19:23:58.497Z,933.37
2022-12-05T19:26:25.981Z,939.90
2022-12-05T19:28:54.552Z,930.33
2022-12-05T19:31:24.556Z,944.40
2022-12-05T19:33:53.570Z,933.10
2022-12-05T19:36:30.394Z,938.45
2022-12-05T19:38:58.266Z,944.53
2022-12-05T19:41:28.332Z,926.30
2022-12-05T19:43:59.729Z,922.17
2022-12-05T19:46:29.606Z,929.90
2022-12-05T19:48:58.116Z,930.70
2022-12-05T19:51:25.004Z,925.97
2022-12-05T19:53:51.999Z,895.33
2022-12-05T19:56:24.241Z,885.15
2022-12-05T19:58:52.599Z,891.58
2022-12-05T20:01:20.479Z,920.08
2022-12-05T20:03:49.823Z,932.47
2022-12-05T20:06:19.781Z,930.30
2022-12-05T20:08:52.213Z,945.13
2022-12-05T20:11:24.675Z,935.13
2022-12-05T20:13:54.806Z,873.30
2022-12-05T20:16:23.860Z,889.47
2022-12-05T20:18:57.436Z,853.83
2022-12-05T20:21:25.214Z,885.38
2022-12-05T20:23:52.986Z,928.50
2022-12-05T20:26:24.899Z,917.90
2022-12-05T20:28:51.931Z,916.00
2022-12-05T20:31:21.923Z,924.70
2022-12-05T20:33:53.344Z,923.85
2022-12-05T20:36:30.821Z,932.10
2022-12-05T20:39:02.950Z,937.83
2022-12-05T20:41:30.377Z,939.13
2022-12-05T20:44:00.034Z,927.92
2022-12-05T20:46:28.260Z,940.42
2022-12-05T20:48:58.797Z,927.73
2022-12-05T20:51:28.507Z,942.90
2022-12-05T20:53:57.194Z,939.80
2022-12-05T20:56:29.637Z,943.53
2022-12-05T20:58:58.492Z,945.80
2022-12-05T21:01:26.610Z,941.40
2022-12-05T21:03:55.024Z,938.05
2022-12-05T21:06:29.391Z,948.58
2022-12-05T21:08:57.088Z,947.22
2022-12-05T21:11:25.770Z,943.42
2022-12-05T21:13:55.855Z,948.35
2022-12-05T21:16:23.381Z,937.23
2022-12-05T21:18:52.189Z,925.25
2022-12-05T21:21:21.850Z,934.85
2022-12-05T21:23:54.654Z,951.93
2022-12-05T21:26:22.876Z,955.55
2022-12-05T21:28:49.660Z,954.35
2022-12-05T21:31:28.425Z,932.58
2022-12-05T21:33:57.558Z,939.30
2022-12-05T21:36:27.383Z,933.43
2022-12-05T21:38:56.523Z,927.72
2022-12-05T21:41:26.791Z,926.85
2022-12-05T21:43:55.630Z,933.85
2022-12-05T21:46:24.704Z,938.15
2022-12-05T21:48:52.728Z,943.13
2022-12-05T21:51:20.178Z,941.90
2022-12-05T21:53:47.283Z,941.40
2022-12-05T21:56:17.710Z,946.47
2022-12-05T21:58:46.465Z,949.92
2022-12-05T22:01:19.177Z,962.88
2022-12-05T22:03:46.735Z,961.15
2022-12-05T22:06:15.580Z,964.25
2022-12-05T22:08:42.920Z,961.90
2022-12-05T22:11:15.083Z,953.55
2022-12-05T22:13:42.556Z,945.55
2022-12-05T22:16:09.582Z,948.97
2022-12-05T22:18:37.178Z,956.53
2022-12-05T22:21:13.167Z,951.92
2022-12-05T22:23:40.234Z,952.67
2022-12-05T22:26:08.373Z,951.60
2022-12-05T22:28:36.041Z,954.73
2022-12-05T22:31:07.972Z,954.22
2022-12-05T22:33:36.546Z,958.33
2022-12-05T22:36:07.799Z,959.15
2022-12-05T22:38:37.142Z,955.35
2022-12-05T22:41:15.922Z,950.58
2022-12-05T22:43:45.653Z,957.95
2022-12-05T22:46:20.431Z,942.60
2022-12-05T22:48:48.688Z,943.75
2022-12-05T22:51:17.022Z,946.25
2022-12-05T22:53:44.205Z,946.90
2022-12-05T22:56:13.750Z,959.80
2022-12-05T22:58:42.015Z,957.95
2022-12-05T23:01:11.149Z,962.60
2022-12-05T23:03:39.548Z,957.38
2022-12-05T23:06:11.737Z,959.83
2022-12-05T23:08:40.410Z,960.63
2022-12-05T23:11:08.523Z,962.13
2022-12-05T23:13:36.499Z,954.30
2022-12-05T23:16:12.155Z,956.40
2022-12-05T23:18:48.447Z,953.72
2022-12-05T23:21:21.484Z,949.30
2022-12-05T23:23:50.273Z,950.70
2022-12-05T23:26:19.405Z,947.30
2022-12-05T23:28:46.210Z,958.92
2022-12-05T23:31:14.379Z,955.33
2022-12-05T23:33:41.625Z,961.63
2022-12-05T23:36:10.194Z,952.75
2022-12-05T23:38:38.965Z,961.08
2022-12-05T23:41:13.276Z,967.03
2022-12-05T23:43:41.317Z,962.10
2022-12-05T23:46:13.466Z,962.47
2022-12-05T23:48:40.579Z,957.05
2022-12-05T23:51:10.764Z,958.17
2022-12-05T23:53:39.509Z,957.15
2022-12-05T23:56:08.222Z,954.90
2022-12-05T23:58:35.650Z,954.65
